Time;durP1;ratioP1;P1;durP2;ratioP2;P2;SDS_P1;SDS_P2;PMS_P1;PMS_P2;Temp;Humidity;BMP_temperature;BMP_pressure;BME280_temperature;BME280_humidity;BME280_pressure;Samples;Min_cycle;Max_cycle;Signal;HPM_P1;HPM_P2
2023/08/16 00:01:10;;;;;;;3.65;3.13;;;21.50;99.90;;;;;;5045417;28;20029;-65
2023/08/16 00:03:37;;;;;;;6.20;3.28;;;21.40;99.90;;;;;;5045471;28;20043;-65
2023/08/16 00:06:13;;;;;;;3.60;3.00;;;21.40;99.90;;;;;;5016375;28;20028;-64
2023/08/16 00:08:40;;;;;;;3.10;2.80;;;21.40;99.90;;;;;;5028800;28;20037;-64
2023/08/16 00:11:05;;;;;;;7.93;3.03;;;21.40;99.90;;;;;;5034610;28;20025;-65
2023/08/16 00:13:32;;;;;;;3.85;3.22;;;21.20;99.90;;;;;;5041304;28;20055;-64
2023/08/16 00:15:59;;;;;;;6.05;3.17;;;21.10;99.90;;;;;;5040397;28;20112;-64
2023/08/16 00:18:25;;;;;;;3.30;2.97;;;21.10;99.90;;;;;;5041150;28;20044;-64
2023/08/16 00:20:51;;;;;;;3.38;3.17;;;21.00;99.90;;;;;;5029199;28;20029;-64
2023/08/16 00:23:16;;;;;;;7.90;3.25;;;21.00;99.90;;;;;;5049728;28;20033;-64
2023/08/16 00:25:42;;;;;;;4.80;3.25;;;21.00;99.90;;;;;;5048985;28;20060;-64
2023/08/16 00:28:08;;;;;;;5.70;3.28;;;21.00;99.90;;;;;;5045386;28;20029;-65
2023/08/16 00:30:33;;;;;;;3.42;3.10;;;21.00;99.90;;;;;;5045374;28;20485;-65
2023/08/16 00:32:59;;;;;;;3.55;3.22;;;21.00;99.90;;;;;;5048407;28;20366;-65
2023/08/16 00:35:24;;;;;;;5.18;2.90;;;21.00;99.90;;;;;;5026669;28;20446;-65
2023/08/16 00:37:50;;;;;;;4.20;3.30;;;20.90;99.90;;;;;;5054108;28;20040;-65
2023/08/16 00:40:16;;;;;;;5.18;3.42;;;21.00;99.90;;;;;;5047809;28;20769;-65
2023/08/16 00:42:41;;;;;;;5.03;3.10;;;21.00;99.90;;;;;;5045146;28;20108;-66
2023/08/16 00:45:08;;;;;;;5.55;3.50;;;21.10;99.90;;;;;;5045689;28;20025;-65
2023/08/16 00:47:34;;;;;;;4.10;3.20;;;21.00;99.90;;;;;;5049263;28;20020;-66
2023/08/16 00:50:00;;;;;;;7.45;3.30;;;20.90;99.90;;;;;;5042862;28;20397;-66
2023/08/16 00:52:26;;;;;;;5.40;2.75;;;20.90;99.90;;;;;;5046086;28;20807;-66
2023/08/16 00:54:53;;;;;;;4.68;2.63;;;20.90;99.90;;;;;;5042529;28;20036;-66
2023/08/16 00:57:19;;;;;;;4.63;2.92;;;20.80;99.90;;;;;;5041107;28;20123;-66
2023/08/16 00:59:45;;;;;;;3.33;3.00;;;20.70;99.90;;;;;;5039751;28;20623;-66
2023/08/16 01:02:14;;;;;;;4.13;3.00;;;20.70;99.90;;;;;;5045004;28;20032;-66
2023/08/16 01:04:42;;;;;;;2.88;2.60;;;20.70;99.90;;;;;;5029773;28;21888;-66
2023/08/16 01:07:08;;;;;;;4.75;2.67;;;20.60;99.90;;;;;;5047586;28;20039;-66
2023/08/16 01:09:33;;;;;;;5.93;3.10;;;20.60;99.90;;;;;;5025540;28;20024;-66
2023/08/16 01:12:23;;;;;;;3.25;2.95;;;20.60;99.90;;;;;;5047927;28;20118;-66
2023/08/16 01:15:12;;;;;;;5.38;3.33;;;20.60;99.90;;;;;;5047085;28;20017;-66
2023/08/16 01:17:39;;;;;;;4.72;3.38;;;20.50;99.90;;;;;;5045979;28;20064;-67
2023/08/16 01:20:07;;;;;;;3.47;3.15;;;20.50;99.90;;;;;;5044302;28;20500;-67
2023/08/16 01:22:42;;;;;;;3.95;3.17;;;20.40;99.90;;;;;;5050122;28;20020;-66
2023/08/16 01:25:43;;;;;;;3.85;3.22;;;20.50;99.90;;;;;;5048375;28;20032;-66
2023/08/16 01:28:10;;;;;;;3.70;3.20;;;20.50;99.90;;;;;;4951067;28;20035;-67
2023/08/16 01:30:37;;;;;;;7.65;2.80;;;20.50;99.90;;;;;;5029737;28;20162;-67
2023/08/16 01:33:10;;;;;;;4.22;2.72;;;20.50;99.90;;;;;;5047914;28;20120;-66
2023/08/16 01:35:36;;;;;;;3.47;3.05;;;20.40;99.90;;;;;;5052465;28;20098;-66
2023/08/16 01:38:03;;;;;;;4.65;3.40;;;20.30;99.90;;;;;;5052490;28;20032;-66
2023/08/16 01:40:34;;;;;;;3.88;2.90;;;20.20;99.90;;;;;;5051872;28;20036;-66
2023/08/16 01:43:01;;;;;;;3.40;3.10;;;20.20;99.90;;;;;;5045740;28;20025;-67
2023/08/16 01:45:27;;;;;;;4.10;3.20;;;20.20;99.90;;;;;;5051433;28;20037;-67
2023/08/16 01:47:54;;;;;;;5.88;2.95;;;20.20;99.90;;;;;;5050029;28;20020;-66
2023/08/16 01:50:20;;;;;;;6.15;3.13;;;20.20;99.90;;;;;;5044810;28;20025;-67
2023/08/16 01:52:47;;;;;;;3.83;3.42;;;20.20;99.90;;;;;;5051426;28;20028;-67
2023/08/16 01:55:13;;;;;;;4.25;3.33;;;20.20;99.90;;;;;;5053151;28;20032;-67
2023/08/16 01:57:38;;;;;;;5.00;3.50;;;20.20;99.90;;;;;;5049399;28;20032;-67
2023/08/16 02:00:05;;;;;;;5.22;3.20;;;20.10;99.90;;;;;;5052718;28;20043;-67
2023/08/16 02:02:30;;;;;;;3.90;3.30;;;20.00;99.90;;;;;;5048730;28;20079;-67
2023/08/16 02:04:56;;;;;;;4.38;3.28;;;20.00;99.90;;;;;;5049892;28;20036;-67
2023/08/16 02:07:23;;;;;;;4.45;3.03;;;20.10;99.90;;;;;;5052348;28;20154;-67
2023/08/16 02:09:48;;;;;;;4.28;3.10;;;20.10;99.90;;;;;;5053775;28;20037;-67
2023/08/16 02:12:14;;;;;;;3.65;3.00;;;20.10;99.90;;;;;;5058811;28;20021;-67
2023/08/16 02:14:40;;;;;;;4.90;3.30;;;20.10;99.90;;;;;;5047002;28;20032;-67
2023/08/16 02:17:05;;;;;;;4.18;3.03;;;20.00;99.90;;;;;;5050860;28;20033;-67
2023/08/16 02:19:31;;;;;;;3.42;3.05;;;19.90;99.90;;;;;;5048199;28;20033;-67
2023/08/16 02:21:57;;;;;;;3.95;2.90;;;19.90;99.90;;;;;;5052582;28;20032;-67
2023/08/16 02:24:23;;;;;;;5.03;3.08;;;19.90;99.90;;;;;;5048661;28;20448;-67
2023/08/16 02:26:48;;;;;;;3.97;3.20;;;19.80;99.90;;;;;;5054345;28;20021;-67
2023/08/16 02:29:14;;;;;;;3.47;3.10;;;19.80;99.90;;;;;;5055820;28;20497;-67
2023/08/16 02:31:40;;;;;;;5.25;3.45;;;19.80;99.90;;;;;;5048555;28;20021;-67
2023/08/16 02:34:05;;;;;;;6.05;3.00;;;19.70;99.90;;;;;;5032756;28;20140;-67
2023/08/16 02:36:31;;;;;;;3.85;3.03;;;19.80;99.90;;;;;;5053723;28;20032;-67
2023/08/16 02:38:56;;;;;;;4.05;2.92;;;19.80;99.90;;;;;;5047919;28;20062;-67
2023/08/16 02:41:22;;;;;;;3.95;2.83;;;19.80;99.90;;;;;;5050262;28;20040;-67
2023/08/16 02:43:47;;;;;;;4.50;3.38;;;19.80;99.90;;;;;;5051028;28;20486;-67
2023/08/16 02:46:13;;;;;;;3.78;2.75;;;19.80;99.90;;;;;;5050879;28;20033;-67
2023/08/16 02:48:39;;;;;;;3.20;2.90;;;19.80;99.90;;;;;;5047651;28;20088;-67
2023/08/16 02:51:05;;;;;;;4.75;2.90;;;19.80;99.90;;;;;;5050531;28;20027;-67
2023/08/16 02:53:31;;;;;;;5.10;3.10;;;19.80;99.90;;;;;;5035599;28;20032;-67
2023/08/16 02:55:56;;;;;;;3.60;2.95;;;19.70;99.90;;;;;;5053984;28;20025;-67
2023/08/16 02:58:22;;;;;;;4.55;3.10;;;19.70;99.90;;;;;;5032797;28;21662;-67
2023/08/16 03:00:52;;;;;;;4.05;2.75;;;19.70;99.90;;;;;;5048741;28;20155;-67
2023/08/16 03:03:18;;;;;;;4.50;3.30;;;19.70;99.90;;;;;;5050409;28;20025;-67
2023/08/16 03:05:44;;;;;;;3.33;2.92;;;19.70;99.90;;;;;;5045771;28;20083;-67
2023/08/16 03:08:10;;;;;;;3.67;2.63;;;19.60;99.90;;;;;;5049230;28;20194;-66
2023/08/16 03:10:35;;;;;;;3.83;2.88;;;19.60;99.90;;;;;;5049545;28;20436;-67
2023/08/16 03:13:01;;;;;;;5.63;3.08;;;19.70;99.90;;;;;;5053065;28;20029;-67
2023/08/16 03:15:27;;;;;;;5.93;3.05;;;19.70;99.90;;;;;;5051351;28;20027;-67
2023/08/16 03:17:52;;;;;;;4.13;3.15;;;19.70;99.90;;;;;;5045947;28;20166;-67
2023/08/16 03:20:18;;;;;;;3.40;3.10;;;19.70;99.90;;;;;;5046556;28;20311;-66
2023/08/16 03:22:43;;;;;;;5.82;2.97;;;19.70;99.90;;;;;;5047023;28;20139;-67
2023/08/16 03:25:09;;;;;;;5.72;2.95;;;19.60;99.90;;;;;;5044445;28;20037;-67
2023/08/16 03:27:35;;;;;;;6.50;3.40;;;19.60;99.90;;;;;;5047690;28;20036;-67
2023/08/16 03:30:01;;;;;;;6.10;3.33;;;19.60;99.90;;;;;;5054019;28;20029;-67
2023/08/16 03:32:26;;;;;;;5.50;3.63;;;19.50;99.90;;;;;;5046246;28;20477;-67
2023/08/16 03:34:52;;;;;;;3.30;2.88;;;19.40;99.90;;;;;;5047492;28;20040;-67
2023/08/16 03:37:17;;;;;;;5.10;3.53;;;19.40;99.90;;;;;;5050012;28;20045;-66
2023/08/16 03:39:43;;;;;;;4.28;3.10;;;19.40;99.90;;;;;;5050214;28;20169;-66
2023/08/16 03:42:09;;;;;;;3.42;2.88;;;19.40;99.90;;;;;;5043818;28;20103;-66
2023/08/16 03:44:34;;;;;;;7.57;3.42;;;19.50;99.90;;;;;;5052455;28;20550;-66
2023/08/16 03:47:00;;;;;;;4.10;2.88;;;19.50;99.90;;;;;;5050780;28;20025;-66
2023/08/16 03:49:26;;;;;;;3.10;2.78;;;19.50;99.90;;;;;;5050781;28;20111;-66
2023/08/16 03:51:51;;;;;;;4.03;3.03;;;19.40;99.90;;;;;;5047408;28;20135;-67
2023/08/16 03:54:17;;;;;;;5.22;3.05;;;19.30;99.90;;;;;;5053449;28;20787;-66
2023/08/16 03:56:43;;;;;;;3.60;2.80;;;19.20;99.90;;;;;;5049496;28;20111;-67
2023/08/16 03:59:08;;;;;;;3.83;3.20;;;19.20;99.90;;;;;;5051041;28;20060;-67
2023/08/16 04:01:34;;;;;;;4.13;3.83;;;19.20;99.90;;;;;;5051433;28;20025;-67
2023/08/16 04:04:00;;;;;;;3.70;3.28;;;19.10;99.90;;;;;;5046813;28;20079;-67
2023/08/16 04:06:26;;;;;;;3.47;3.17;;;19.10;99.90;;;;;;5041991;28;20025;-67
2023/08/16 04:08:51;;;;;;;5.47;3.25;;;19.20;99.90;;;;;;5054452;28;20037;-67
2023/08/16 04:11:17;;;;;;;4.18;3.22;;;19.20;99.90;;;;;;5045888;28;20655;-66
2023/08/16 04:13:43;;;;;;;3.83;3.45;;;19.20;99.90;;;;;;5053034;28;20028;-67
2023/08/16 04:16:08;;;;;;;6.78;3.75;;;19.20;99.90;;;;;;5048123;28;20083;-66
2023/08/16 04:18:34;;;;;;;3.58;3.28;;;19.20;99.90;;;;;;5045935;28;20093;-66
2023/08/16 04:20:59;;;;;;;7.65;3.50;;;19.30;99.90;;;;;;5050610;28;20029;-68
2023/08/16 04:23:25;;;;;;;4.95;3.80;;;19.30;99.90;;;;;;5045232;28;20456;-67
2023/08/16 04:25:51;;;;;;;4.75;3.42;;;19.40;99.90;;;;;;5049506;28;20036;-67
2023/08/16 04:28:17;;;;;;;11.35;3.80;;;19.40;99.90;;;;;;5046489;28;20029;-66
2023/08/16 04:30:43;;;;;;;7.47;3.30;;;19.50;99.90;;;;;;5045265;28;20145;-67
2023/08/16 04:33:08;;;;;;;3.70;3.15;;;19.60;99.90;;;;;;5052075;28;21337;-67
2023/08/16 04:35:34;;;;;;;4.63;3.55;;;19.60;99.90;;;;;;5047655;28;20035;-67
2023/08/16 04:37:59;;;;;;;6.28;3.28;;;19.70;99.90;;;;;;5057642;28;20045;-67
2023/08/16 04:40:25;;;;;;;4.85;3.80;;;19.70;99.90;;;;;;5045520;28;20029;-67
2023/08/16 04:42:51;;;;;;;4.88;3.88;;;19.70;99.90;;;;;;5046893;28;20074;-67
2023/08/16 04:45:16;;;;;;;5.70;3.75;;;19.80;99.90;;;;;;5051215;28;20029;-67
2023/08/16 04:47:42;;;;;;;6.38;3.95;;;19.90;99.90;;;;;;5032027;28;20028;-67
2023/08/16 04:50:08;;;;;;;6.15;3.70;;;19.90;99.90;;;;;;5050660;28;20032;-67
2023/08/16 04:52:36;;;;;;;4.25;3.78;;;20.00;99.90;;;;;;5050089;28;20029;-69
2023/08/16 04:55:02;;;;;;;4.78;3.78;;;20.00;99.90;;;;;;5052359;28;20028;-68
2023/08/16 04:57:27;;;;;;;4.93;3.65;;;20.10;99.90;;;;;;5049634;28;20036;-67
2023/08/16 04:59:53;;;;;;;7.78;3.38;;;20.10;99.90;;;;;;5046882;28;21009;-67
2023/08/16 05:02:19;;;;;;;3.72;3.13;;;20.20;99.90;;;;;;5045660;28;20032;-66
2023/08/16 05:04:44;;;;;;;6.43;4.28;;;20.30;99.90;;;;;;5052124;28;20106;-67
2023/08/16 05:07:10;;;;;;;9.43;4.05;;;20.40;99.90;;;;;;5025266;28;20060;-67
2023/08/16 05:09:36;;;;;;;10.02;4.28;;;20.50;99.90;;;;;;5048615;28;20525;-68
2023/08/16 05:12:02;;;;;;;4.13;3.72;;;20.60;99.90;;;;;;5044043;28;20029;-68
2023/08/16 05:14:28;;;;;;;6.95;4.20;;;20.70;99.90;;;;;;5053561;28;20051;-67
2023/08/16 05:16:54;;;;;;;7.28;4.03;;;20.90;99.90;;;;;;5043282;28;20032;-66
2023/08/16 05:19:19;;;;;;;5.40;3.72;;;21.00;99.90;;;;;;5044109;28;20052;-67
2023/08/16 05:21:45;;;;;;;6.65;3.72;;;21.20;99.90;;;;;;5044449;28;20040;-67
2023/08/16 05:24:11;;;;;;;4.72;4.22;;;21.30;99.90;;;;;;5039787;28;20032;-67
2023/08/16 05:26:36;;;;;;;7.60;4.47;;;21.40;99.90;;;;;;5026406;28;20028;-67
2023/08/16 05:29:02;;;;;;;4.43;3.97;;;21.60;99.90;;;;;;5042696;28;20037;-67
2023/08/16 05:31:28;;;;;;;4.45;3.42;;;21.70;99.90;;;;;;5042460;28;20037;-67
2023/08/16 05:33:54;;;;;;;8.93;3.60;;;21.90;99.90;;;;;;5019111;28;20047;-67
2023/08/16 05:36:19;;;;;;;7.68;3.45;;;22.10;99.90;;;;;;5041094;28;20448;-67
2023/08/16 05:38:45;;;;;;;4.00;3.33;;;22.20;99.90;;;;;;5040669;28;20864;-67
2023/08/16 05:41:10;;;;;;;3.47;3.17;;;22.30;99.90;;;;;;5031138;28;20028;-67
2023/08/16 05:43:36;;;;;;;4.45;3.90;;;22.50;99.90;;;;;;5041705;28;20106;-67
2023/08/16 05:46:02;;;;;;;5.63;3.35;;;22.60;99.90;;;;;;5043264;28;20037;-67
2023/08/16 05:48:28;;;;;;;5.03;3.38;;;22.80;99.90;;;;;;5049635;28;20029;-67
2023/08/16 05:50:54;;;;;;;3.95;3.50;;;22.90;99.90;;;;;;5046979;28;21220;-67
2023/08/16 05:53:19;;;;;;;4.90;3.10;;;23.00;99.90;;;;;;5048694;28;20128;-67
2023/08/16 05:55:45;;;;;;;8.52;3.83;;;23.10;99.90;;;;;;5045720;28;20024;-67
2023/08/16 05:58:11;;;;;;;4.22;3.50;;;23.30;99.90;;;;;;5050281;28;20048;-67
2023/08/16 06:00:37;;;;;;;3.55;3.25;;;23.40;99.90;;;;;;5046065;28;20056;-67
2023/08/16 06:03:03;;;;;;;5.47;3.25;;;23.60;99.90;;;;;;5045954;28;20039;-67
2023/08/16 06:05:29;;;;;;;5.72;3.40;;;23.60;99.90;;;;;;5049883;28;20443;-67
2023/08/16 06:07:54;;;;;;;5.35;3.25;;;23.60;99.90;;;;;;5029547;28;20131;-67
2023/08/16 06:10:20;;;;;;;3.95;2.67;;;23.70;99.90;;;;;;5048737;28;20486;-67
2023/08/16 06:12:45;;;;;;;6.13;3.15;;;23.80;99.90;;;;;;5049687;28;20045;-67
2023/08/16 06:15:11;;;;;;;6.72;3.88;;;23.80;99.90;;;;;;5050451;28;20130;-68
2023/08/16 06:17:41;;;;;;;4.90;3.00;;;23.90;99.90;;;;;;5035415;28;20037;-69
2023/08/16 06:20:08;;;;;;;6.97;2.88;;;24.00;99.90;;;;;;5047138;28;20474;-67
2023/08/16 06:22:40;;;;;;;5.28;3.50;;;24.10;99.90;;;;;;5053226;28;20062;-67
2023/08/16 06:25:09;;;;;;;4.20;3.53;;;24.10;99.90;;;;;;5044911;28;20028;-67
2023/08/16 06:27:35;;;;;;;3.55;3.25;;;24.20;99.90;;;;;;5051190;28;20043;-67
2023/08/16 06:30:01;;;;;;;4.03;3.17;;;24.20;99.90;;;;;;5041923;28;20029;-67
2023/08/16 06:32:27;;;;;;;3.97;3.53;;;24.20;99.90;;;;;;5014753;28;20516;-67
2023/08/16 06:34:52;;;;;;;3.67;3.22;;;24.20;99.90;;;;;;5046018;28;20025;-67
2023/08/16 06:37:18;;;;;;;4.05;3.28;;;24.10;99.90;;;;;;5047695;28;20405;-67
2023/08/16 06:39:44;;;;;;;3.47;3.25;;;24.10;99.90;;;;;;5049091;28;20037;-67
2023/08/16 06:42:09;;;;;;;3.63;3.30;;;24.10;99.90;;;;;;5044442;28;20025;-67
2023/08/16 06:44:35;;;;;;;8.40;3.75;;;24.00;99.90;;;;;;5042945;28;20502;-67
2023/08/16 06:47:01;;;;;;;5.50;3.65;;;23.90;99.90;;;;;;5038705;28;20017;-67
2023/08/16 06:49:27;;;;;;;3.95;3.42;;;24.00;99.90;;;;;;5052640;28;20035;-67
2023/08/16 06:51:53;;;;;;;5.60;3.40;;;23.90;99.90;;;;;;5048958;28;20028;-67
2023/08/16 06:54:18;;;;;;;4.15;3.75;;;23.90;99.90;;;;;;5053292;28;20055;-64
2023/08/16 06:56:44;;;;;;;6.35;3.55;;;23.90;99.90;;;;;;5047508;28;20128;-67
2023/08/16 06:59:10;;;;;;;9.10;3.85;;;23.90;99.90;;;;;;5043268;28;20060;-67
2023/08/16 07:01:36;;;;;;;10.90;3.60;;;23.90;99.90;;;;;;5032452;28;20118;-67
2023/08/16 07:04:02;;;;;;;5.75;3.88;;;23.90;99.90;;;;;;5045546;28;20044;-67
2023/08/16 07:06:31;;;;;;;6.00;4.20;;;23.90;99.90;;;;;;5044020;28;20027;-67
2023/08/16 07:08:57;;;;;;;5.50;3.78;;;23.90;99.90;;;;;;5046371;28;20035;-67
2023/08/16 07:11:24;;;;;;;5.50;3.60;;;23.90;99.90;;;;;;5051382;28;20028;-67
2023/08/16 07:13:50;;;;;;;12.27;3.72;;;23.90;99.90;;;;;;5052439;28;20052;-67
2023/08/16 07:16:17;;;;;;;7.78;4.40;;;23.90;99.90;;;;;;5036441;28;20025;-67
2023/08/16 07:18:42;;;;;;;11.02;4.40;;;23.90;99.90;;;;;;5017172;28;20493;-67
2023/08/16 07:21:08;;;;;;;7.00;3.70;;;23.90;99.90;;;;;;5029398;28;20051;-67
2023/08/16 07:23:34;;;;;;;4.68;3.80;;;23.90;99.90;;;;;;5041160;28;20167;-67
2023/08/16 07:25:59;;;;;;;4.03;3.72;;;24.00;99.90;;;;;;5039672;28;20057;-67
2023/08/16 07:28:25;;;;;;;6.47;3.97;;;24.00;99.90;;;;;;5038651;28;20028;-67
2023/08/16 07:30:55;;;;;;;4.55;3.47;;;24.10;99.90;;;;;;5031533;28;20032;-67
2023/08/16 07:33:22;;;;;;;4.25;3.70;;;24.10;99.90;;;;;;5034206;28;20032;-67
2023/08/16 07:35:50;;;;;;;5.32;3.85;;;24.20;99.90;;;;;;5038069;28;20033;-67
2023/08/16 07:38:16;;;;;;;5.55;3.72;;;24.30;99.90;;;;;;5035550;28;20043;-67
2023/08/16 07:40:49;;;;;;;5.88;3.90;;;24.40;99.90;;;;;;5037760;28;20037;-66
2023/08/16 07:43:15;;;;;;;4.55;3.28;;;24.40;99.90;;;;;;5030201;28;20025;-66
2023/08/16 07:45:41;;;;;;;4.75;3.60;;;24.30;99.90;;;;;;5044038;28;20029;-66
2023/08/16 07:48:07;;;;;;;4.10;3.60;;;24.30;99.90;;;;;;5044202;28;20024;-66
2023/08/16 07:50:32;;;;;;;4.63;3.95;;;24.30;99.90;;;;;;5051048;28;20467;-66
2023/08/16 07:52:58;;;;;;;5.00;3.97;;;24.30;99.90;;;;;;5043268;28;20542;-66
2023/08/16 07:55:30;;;;;;;5.13;4.13;;;24.30;99.90;;;;;;5041415;28;20734;-66
2023/08/16 07:57:56;;;;;;;5.28;3.78;;;24.30;99.90;;;;;;5033541;28;20035;-66
2023/08/16 08:00:21;;;;;;;3.38;3.15;;;24.30;99.90;;;;;;5053042;28;20036;-67
2023/08/16 08:02:48;;;;;;;4.50;4.10;;;24.30;99.90;;;;;;5040089;28;20038;-66
2023/08/16 08:05:15;;;;;;;8.48;4.30;;;24.40;99.90;;;;;;5043698;28;20033;-66
2023/08/16 08:07:40;;;;;;;4.35;3.47;;;24.40;99.90;;;;;;5045104;28;20627;-67
2023/08/16 08:10:07;;;;;;;6.03;3.85;;;24.50;99.90;;;;;;5017554;28;20707;-66
2023/08/16 08:12:33;;;;;;;4.25;3.85;;;24.60;99.90;;;;;;5030913;28;20032;-61
2023/08/16 08:14:59;;;;;;;6.25;3.83;;;24.80;99.90;;;;;;5041566;28;20033;-62
2023/08/16 08:17:24;;;;;;;6.18;4.22;;;24.80;99.90;;;;;;5040819;28;20437;-62
2023/08/16 08:19:50;;;;;;;4.75;3.90;;;25.00;99.90;;;;;;5020699;28;20047;-61
2023/08/16 08:22:16;;;;;;;4.07;3.67;;;25.10;99.90;;;;;;5037030;28;20032;-62
2023/08/16 08:24:42;;;;;;;5.65;3.90;;;25.30;99.90;;;;;;5026821;28;20068;-62
2023/08/16 08:27:07;;;;;;;4.70;4.30;;;25.50;99.90;;;;;;5027980;28;20401;-62
2023/08/16 08:29:33;;;;;;;4.47;3.60;;;25.60;99.90;;;;;;5036203;28;20077;-61
2023/08/16 08:31:58;;;;;;;5.05;3.85;;;25.70;99.90;;;;;;5045139;28;20032;-62
2023/08/16 08:34:26;;;;;;;6.55;4.10;;;25.80;99.90;;;;;;5024301;28;20033;-63
2023/08/16 08:36:52;;;;;;;6.22;4.30;;;25.90;99.90;;;;;;5020241;28;20581;-62
2023/08/16 08:39:19;;;;;;;5.38;4.03;;;25.90;99.90;;;;;;5051254;28;20048;-62
2023/08/16 08:41:48;;;;;;;4.07;3.67;;;26.00;99.90;;;;;;5050621;28;20029;-61
2023/08/16 08:44:19;;;;;;;3.78;3.38;;;26.10;99.90;;;;;;5042058;28;20036;-61
2023/08/16 08:46:46;;;;;;;3.70;3.40;;;26.20;99.90;;;;;;5021664;28;20370;-61
2023/08/16 08:49:17;;;;;;;5.05;4.20;;;26.30;99.90;;;;;;5052111;28;20025;-61
2023/08/16 08:51:43;;;;;;;4.15;3.75;;;26.40;99.90;;;;;;5036465;28;20024;-61
2023/08/16 08:54:08;;;;;;;12.45;5.20;;;26.40;99.90;;;;;;5038936;28;20538;-60
2023/08/16 08:56:34;;;;;;;4.20;3.50;;;26.40;99.90;;;;;;5036267;28;20100;-60
2023/08/16 08:59:01;;;;;;;4.25;3.80;;;26.50;99.90;;;;;;5030984;28;20722;-61
2023/08/16 09:01:27;;;;;;;4.90;3.53;;;26.40;99.90;;;;;;5039881;28;20029;-60
2023/08/16 09:03:56;;;;;;;5.68;4.03;;;26.40;99.90;;;;;;5044319;28;20036;-60
2023/08/16 09:06:22;;;;;;;6.28;4.18;;;26.40;99.90;;;;;;5034973;28;20712;-60
2023/08/16 09:08:48;;;;;;;3.78;3.47;;;26.60;99.90;;;;;;5026023;28;20745;-61
2023/08/16 09:11:14;;;;;;;7.57;3.85;;;26.70;99.90;;;;;;5024702;28;20033;-61
2023/08/16 09:13:40;;;;;;;6.40;3.50;;;26.70;99.90;;;;;;5046439;28;20743;-61
2023/08/16 09:16:05;;;;;;;4.15;3.45;;;26.70;99.90;;;;;;5025036;28;20635;-61
2023/08/16 09:18:31;;;;;;;3.70;3.13;;;26.80;99.90;;;;;;5046016;28;20440;-62
2023/08/16 09:21:00;;;;;;;5.13;3.70;;;26.90;99.90;;;;;;5027184;28;20021;-62
2023/08/16 09:23:26;;;;;;;7.65;3.60;;;27.00;99.90;;;;;;5037213;28;20040;-62
2023/08/16 09:25:52;;;;;;;3.47;3.17;;;27.20;99.90;;;;;;5036862;28;20040;-62
2023/08/16 09:28:19;;;;;;;6.20;3.88;;;27.20;99.90;;;;;;5044586;28;20082;-63
2023/08/16 09:30:45;;;;;;;3.60;3.30;;;27.20;99.90;;;;;;5036672;28;20485;-59
2023/08/16 09:33:17;;;;;;;6.85;3.83;;;27.20;99.90;;;;;;5040089;28;20087;-62
2023/08/16 09:35:48;;;;;;;;;;;27.20;99.90;;;;;;5036024;28;20047;-61
2023/08/16 09:38:15;;;;;;;4.97;3.10;;;27.30;99.90;;;;;;5036466;28;19996;-61
2023/08/16 09:40:53;;;;;;;3.75;3.42;;;27.40;99.90;;;;;;5039666;28;20032;-61
2023/08/16 09:43:19;;;;;;;3.85;3.45;;;27.40;99.90;;;;;;5048178;28;20119;-61
2023/08/16 09:45:51;;;;;;;3.80;3.30;;;27.40;99.90;;;;;;5037044;28;20044;-61
2023/08/16 09:48:19;;;;;;;5.30;3.88;;;27.50;99.90;;;;;;5043782;28;20040;-61
2023/08/16 09:50:45;;;;;;;4.60;3.22;;;27.50;99.90;;;;;;5050180;28;20269;-61
2023/08/16 09:53:12;;;;;;;5.53;3.83;;;27.50;99.90;;;;;;5048840;28;20315;-61
2023/08/16 09:55:40;;;;;;;7.13;3.28;;;27.40;99.90;;;;;;5043729;28;20025;-60
2023/08/16 09:58:07;;;;;;;4.18;3.63;;;27.40;99.90;;;;;;5048812;28;20057;-60
2023/08/16 10:00:34;;;;;;;8.48;3.90;;;27.50;99.90;;;;;;5051237;28;20024;-61
2023/08/16 10:03:01;;;;;;;6.18;4.10;;;27.50;99.90;;;;;;5049610;28;20040;-60
2023/08/16 10:05:27;;;;;;;5.43;4.45;;;27.60;99.90;;;;;;5047063;28;20060;-61
2023/08/16 10:07:56;;;;;;;5.38;3.92;;;27.70;99.90;;;;;;5052658;28;20029;-60
2023/08/16 10:10:22;;;;;;;7.70;4.20;;;27.60;99.90;;;;;;5051039;28;20041;-60
2023/08/16 10:12:48;;;;;;;6.25;4.15;;;27.60;99.90;;;;;;5050699;28;20236;-61
2023/08/16 10:15:14;;;;;;;4.97;4.30;;;27.60;99.90;;;;;;5049038;28;20097;-61
2023/08/16 10:17:42;;;;;;;4.57;4.18;;;27.60;99.90;;;;;;5051219;28;20059;-61
2023/08/16 10:20:23;;;;;;;4.43;4.03;;;27.70;99.90;;;;;;5049059;28;20107;-61
2023/08/16 10:22:56;;;;;;;4.57;4.03;;;27.80;99.90;;;;;;5049031;28;20106;-61
2023/08/16 10:25:25;;;;;;;4.25;3.85;;;27.70;99.90;;;;;;5031865;28;20062;-61
2023/08/16 10:27:53;;;;;;;5.00;3.92;;;27.70;99.90;;;;;;5051490;28;20052;-61
2023/08/16 10:30:22;;;;;;;5.28;3.53;;;27.70;99.90;;;;;;5045669;28;21540;-62
2023/08/16 10:32:53;;;;;;;7.03;4.15;;;27.70;99.90;;;;;;5032104;28;20485;-60
2023/08/16 10:35:20;;;;;;;5.97;3.90;;;27.60;99.90;;;;;;5054249;28;20577;-61
2023/08/16 10:37:46;;;;;;;4.40;4.00;;;27.60;99.90;;;;;;5049967;28;20033;-61
2023/08/16 10:40:17;;;;;;;5.22;4.35;;;27.60;99.90;;;;;;5049100;28;20052;-61
2023/08/16 10:42:55;;;;;;;5.95;4.38;;;27.60;99.90;;;;;;5048609;28;20025;-61
2023/08/16 10:45:35;;;;;;;4.50;3.85;;;27.70;99.90;;;;;;5054570;28;20043;-61
2023/08/16 10:48:14;;;;;;;4.20;3.83;;;27.70;99.90;;;;;;5049990;28;20040;-61
2023/08/16 10:50:41;;;;;;;3.95;3.55;;;27.80;99.90;;;;;;5050667;28;20562;-61
2023/08/16 10:53:08;;;;;;;4.88;3.80;;;27.80;99.90;;;;;;5052509;28;20029;-61
2023/08/16 10:55:34;;;;;;;8.90;3.92;;;27.90;99.90;;;;;;5042315;28;20040;-60
2023/08/16 10:58:00;;;;;;;5.22;4.00;;;27.90;99.90;;;;;;5050257;28;20063;-61
2023/08/16 11:00:34;;;;;;;8.43;4.43;;;27.90;99.90;;;;;;5046863;28;20037;-60
2023/08/16 11:03:01;;;;;;;7.82;4.20;;;27.90;99.90;;;;;;5052972;28;20068;-61
2023/08/16 11:05:30;;;;;;;7.13;3.95;;;28.00;99.90;;;;;;5052442;28;20087;-60
2023/08/16 11:07:58;;;;;;;4.97;3.95;;;28.10;99.90;;;;;;5023875;28;20126;-60
2023/08/16 11:10:34;;;;;;;5.53;4.35;;;28.00;99.90;;;;;;5026323;28;20053;-60
2023/08/16 11:13:02;;;;;;;13.13;4.22;;;28.10;99.90;;;;;;5029166;28;20152;-62
2023/08/16 11:15:27;;;;;;;7.95;4.30;;;28.20;99.90;;;;;;5016519;28;20325;-62
2023/08/16 11:17:55;;;;;;;6.55;4.20;;;28.20;99.90;;;;;;5038653;28;20501;-66
2023/08/16 11:20:21;;;;;;;8.32;3.95;;;28.30;99.90;;;;;;5030445;28;20143;-65
2023/08/16 11:22:47;;;;;;;6.38;4.10;;;28.30;99.90;;;;;;5030592;28;20242;-62
2023/08/16 11:25:12;;;;;;;7.93;4.30;;;28.30;99.90;;;;;;5035226;28;20693;-61
2023/08/16 11:27:38;;;;;;;4.75;3.95;;;28.40;99.90;;;;;;5023919;28;20091;-61
2023/08/16 11:30:05;;;;;;;4.45;4.05;;;28.40;99.90;;;;;;5028561;28;21514;-61
2023/08/16 11:32:31;;;;;;;4.60;4.03;;;28.40;99.90;;;;;;5024370;28;20021;-63
2023/08/16 11:34:56;;;;;;;5.25;4.00;;;28.40;99.90;;;;;;5026571;28;20041;-63
2023/08/16 11:37:22;;;;;;;6.95;4.03;;;28.30;99.90;;;;;;5030701;28;20034;-63
2023/08/16 11:39:58;;;;;;;5.15;3.95;;;28.30;99.90;;;;;;5028045;28;20040;-62
2023/08/16 11:42:27;;;;;;;7.70;4.72;;;28.40;99.90;;;;;;5016146;28;21657;-61
2023/08/16 11:44:52;;;;;;;6.50;4.07;;;28.60;99.90;;;;;;5009838;28;20620;-62
2023/08/16 11:47:18;;;;;;;6.63;4.75;;;28.80;99.90;;;;;;5018464;28;20140;-61
2023/08/16 11:49:44;;;;;;;6.38;4.00;;;28.80;99.90;;;;;;4988507;28;20067;-62
2023/08/16 11:52:09;;;;;;;4.43;4.07;;;28.80;99.90;;;;;;5023823;28;20642;-61
2023/08/16 11:54:35;;;;;;;6.05;3.83;;;28.70;99.90;;;;;;5025192;28;20140;-61
2023/08/16 11:57:01;;;;;;;5.18;4.03;;;28.50;99.90;;;;;;5024137;28;20193;-62
2023/08/16 11:59:28;;;;;;;4.75;4.03;;;28.40;99.90;;;;;;5030317;28;20418;-61
2023/08/16 12:01:54;;;;;;;6.47;4.25;;;28.40;99.90;;;;;;5024855;28;20037;-62
2023/08/16 12:04:22;;;;;;;6.50;3.97;;;28.40;99.90;;;;;;5020181;28;20036;-62
2023/08/16 12:06:47;;;;;;;6.32;3.90;;;28.60;99.90;;;;;;4999609;28;20143;-63
2023/08/16 12:09:18;;;;;;;3.97;3.58;;;28.70;99.90;;;;;;5004128;28;20032;-64
2023/08/16 12:11:52;;;;;;;5.77;3.50;;;28.80;99.90;;;;;;5020777;28;20491;-63
2023/08/16 12:14:18;;;;;;;5.90;3.90;;;28.70;99.90;;;;;;5023048;28;20021;-62
2023/08/16 12:16:43;;;;;;;4.65;3.53;;;28.60;99.90;;;;;;5023482;28;20457;-62
2023/08/16 12:19:09;;;;;;;4.28;3.13;;;28.50;99.90;;;;;;5021665;28;20040;-63
2023/08/16 12:21:35;;;;;;;6.07;3.78;;;28.50;99.90;;;;;;5022059;28;20033;-63
2023/08/16 12:24:00;;;;;;;4.68;3.90;;;28.60;99.90;;;;;;5021419;28;20127;-63
2023/08/16 12:26:26;;;;;;;4.18;3.70;;;28.60;99.90;;;;;;5010640;28;20029;-63
2023/08/16 12:28:51;;;;;;;5.65;4.18;;;28.60;99.90;;;;;;5013339;28;20037;-63
2023/08/16 12:31:17;;;;;;;7.57;4.32;;;28.60;99.90;;;;;;5018831;28;20132;-63
2023/08/16 12:33:43;;;;;;;4.60;3.42;;;28.80;99.90;;;;;;5010681;28;20590;-63
2023/08/16 12:36:09;;;;;;;3.58;3.25;;;28.90;99.90;;;;;;5016004;28;20047;-63
2023/08/16 12:38:35;;;;;;;5.18;3.40;;;28.90;99.90;;;;;;5009580;28;20049;-63
2023/08/16 12:41:00;;;;;;;3.90;3.60;;;28.80;99.90;;;;;;5009473;28;20029;-62
2023/08/16 12:43:26;;;;;;;7.22;3.50;;;28.90;99.90;;;;;;5011648;28;20036;-65
2023/08/16 12:45:51;;;;;;;5.72;3.33;;;28.90;99.90;;;;;;5011498;28;21930;-64